CHS weather

Charleston Air Force Base-International Airport
Charleston, South Carolina, United States

Public forecast

Using degrees Fahrenheit for public forecast. Weather courtesy of forecast.io.

Current aviation weather report (METAR) for Charleston Air Force Base-International Airport

Retrieved 2019/11/19 23:56 UTC (33 minutes ago):

KCHS 192356Z 27003KT 10SM CLR 11/06 A2991 RMK AO2 SLP127 T01060056 10172 20106 53024

Aviation forecast (TAF) for Charleston Air Force Base-International Airport

Retrieved 2019-11-20 00:27 UTC (2 minutes ago):

TAF KCHS 192320Z 2000/2024 27005KT P6SM SKC FM201400 34008KT P6SM SKC